sensor_id;sensor_type;location;lat;lon;timestamp;P1;durP1;ratioP1;P2;durP2;ratioP2
71204;SDS011;58935;54.498;18.544;2024-02-21T00:01:03;20.60;;;5.70;;
71204;SDS011;58935;54.498;18.544;2024-02-21T00:03:31;30.30;;;5.50;;
71204;SDS011;58935;54.498;18.544;2024-02-21T00:05:57;19.40;;;5.40;;
71204;SDS011;58935;54.498;18.544;2024-02-21T00:08:24;23.20;;;4.40;;
71204;SDS011;58935;54.498;18.544;2024-02-21T00:10:54;27.80;;;5.20;;
71204;SDS011;58935;54.498;18.544;2024-02-21T00:13:22;24.30;;;5.60;;
71204;SDS011;58935;54.498;18.544;2024-02-21T00:15:48;26.30;;;5.30;;
71204;SDS011;58935;54.498;18.544;2024-02-21T00:18:13;18.40;;;4.90;;
71204;SDS011;58935;54.498;18.544;2024-02-21T00:20:38;22.60;;;4.60;;
71204;SDS011;58935;54.498;18.544;2024-02-21T00:23:04;24.40;;;4.80;;
71204;SDS011;58935;54.498;18.544;2024-02-21T00:25:29;19.00;;;4.50;;
71204;SDS011;58935;54.498;18.544;2024-02-21T00:27:55;26.00;;;4.90;;
71204;SDS011;58935;54.498;18.544;2024-02-21T00:30:21;23.00;;;5.00;;
71204;SDS011;58935;54.498;18.544;2024-02-21T00:32:46;21.40;;;4.60;;
71204;SDS011;58935;54.498;18.544;2024-02-21T00:35:13;19.10;;;4.10;;
71204;SDS011;58935;54.498;18.544;2024-02-21T00:37:39;18.40;;;4.30;;
71204;SDS011;58935;54.498;18.544;2024-02-21T00:40:05;18.50;;;5.00;;
71204;SDS011;58935;54.498;18.544;2024-02-21T00:42:31;22.00;;;4.50;;
71204;SDS011;58935;54.498;18.544;2024-02-21T00:45:01;22.10;;;4.70;;
71204;SDS011;58935;54.498;18.544;2024-02-21T00:47:27;24.60;;;4.90;;
71204;SDS011;58935;54.498;18.544;2024-02-21T00:49:52;28.10;;;5.30;;
71204;SDS011;58935;54.498;18.544;2024-02-21T00:52:20;18.90;;;4.30;;
71204;SDS011;58935;54.498;18.544;2024-02-21T00:54:47;26.00;;;4.30;;
71204;SDS011;58935;54.498;18.544;2024-02-21T00:57:15;24.80;;;5.80;;
71204;SDS011;58935;54.498;18.544;2024-02-21T00:59:42;25.50;;;5.30;;
71204;SDS011;58935;54.498;18.544;2024-02-21T01:02:08;27.20;;;5.70;;
71204;SDS011;58935;54.498;18.544;2024-02-21T01:04:36;23.90;;;5.20;;
71204;SDS011;58935;54.498;18.544;2024-02-21T01:07:02;25.70;;;4.90;;
71204;SDS011;58935;54.498;18.544;2024-02-21T01:09:27;23.50;;;4.60;;
71204;SDS011;58935;54.498;18.544;2024-02-21T01:11:53;22.10;;;4.70;;
71204;SDS011;58935;54.498;18.544;2024-02-21T01:14:18;27.30;;;5.20;;
71204;SDS011;58935;54.498;18.544;2024-02-21T01:16:44;22.70;;;4.60;;
71204;SDS011;58935;54.498;18.544;2024-02-21T01:19:09;30.10;;;5.70;;
71204;SDS011;58935;54.498;18.544;2024-02-21T01:21:34;25.10;;;5.50;;
71204;SDS011;58935;54.498;18.544;2024-02-21T01:24:00;28.20;;;5.20;;
71204;SDS011;58935;54.498;18.544;2024-02-21T01:26:25;19.50;;;4.40;;
71204;SDS011;58935;54.498;18.544;2024-02-21T01:28:50;25.30;;;5.70;;
71204;SDS011;58935;54.498;18.544;2024-02-21T01:31:16;21.00;;;4.60;;
71204;SDS011;58935;54.498;18.544;2024-02-21T01:33:41;29.30;;;5.80;;
71204;SDS011;58935;54.498;18.544;2024-02-21T01:36:07;21.80;;;4.80;;
71204;SDS011;58935;54.498;18.544;2024-02-21T01:38:33;21.80;;;5.40;;
71204;SDS011;58935;54.498;18.544;2024-02-21T01:40:59;20.80;;;5.70;;
71204;SDS011;58935;54.498;18.544;2024-02-21T01:43:24;27.00;;;5.80;;
71204;SDS011;58935;54.498;18.544;2024-02-21T01:45:52;26.70;;;4.90;;
71204;SDS011;58935;54.498;18.544;2024-02-21T01:48:22;22.80;;;5.20;;
71204;SDS011;58935;54.498;18.544;2024-02-21T01:50:49;27.10;;;5.00;;
71204;SDS011;58935;54.498;18.544;2024-02-21T01:53:19;16.70;;;5.60;;
71204;SDS011;58935;54.498;18.544;2024-02-21T01:55:50;21.20;;;5.70;;
71204;SDS011;58935;54.498;18.544;2024-02-21T01:58:16;19.50;;;5.10;;
71204;SDS011;58935;54.498;18.544;2024-02-21T02:00:45;30.10;;;6.00;;
71204;SDS011;58935;54.498;18.544;2024-02-21T02:03:13;22.70;;;5.70;;
71204;SDS011;58935;54.498;18.544;2024-02-21T02:05:45;28.60;;;5.50;;
71204;SDS011;58935;54.498;18.544;2024-02-21T02:08:14;25.60;;;5.10;;
71204;SDS011;58935;54.498;18.544;2024-02-21T02:10:41;26.30;;;5.20;;
71204;SDS011;58935;54.498;18.544;2024-02-21T02:13:11;16.60;;;4.50;;
71204;SDS011;58935;54.498;18.544;2024-02-21T02:15:41;17.60;;;4.90;;
71204;SDS011;58935;54.498;18.544;2024-02-21T02:18:09;23.90;;;5.10;;
71204;SDS011;58935;54.498;18.544;2024-02-21T02:20:36;26.70;;;5.90;;
71204;SDS011;58935;54.498;18.544;2024-02-21T02:25:37;30.00;;;5.80;;
71204;SDS011;58935;54.498;18.544;2024-02-21T02:28:05;29.20;;;6.60;;
71204;SDS011;58935;54.498;18.544;2024-02-21T02:30:33;12.60;;;4.10;;
71204;SDS011;58935;54.498;18.544;2024-02-21T02:33:04;26.50;;;5.30;;
71204;SDS011;58935;54.498;18.544;2024-02-21T02:35:32;33.30;;;6.50;;
71204;SDS011;58935;54.498;18.544;2024-02-21T02:38:02;36.10;;;5.90;;
71204;SDS011;58935;54.498;18.544;2024-02-21T02:40:29;35.90;;;6.10;;
71204;SDS011;58935;54.498;18.544;2024-02-21T02:42:55;29.20;;;6.00;;
71204;SDS011;58935;54.498;18.544;2024-02-21T02:45:22;28.80;;;5.80;;
71204;SDS011;58935;54.498;18.544;2024-02-21T02:47:49;28.00;;;5.40;;
71204;SDS011;58935;54.498;18.544;2024-02-21T02:50:15;27.00;;;5.80;;
71204;SDS011;58935;54.498;18.544;2024-02-21T02:52:41;30.00;;;6.70;;
71204;SDS011;58935;54.498;18.544;2024-02-21T02:55:09;29.70;;;5.60;;
71204;SDS011;58935;54.498;18.544;2024-02-21T02:57:34;31.00;;;7.00;;
71204;SDS011;58935;54.498;18.544;2024-02-21T03:00:02;25.50;;;6.50;;
71204;SDS011;58935;54.498;18.544;2024-02-21T03:02:31;24.00;;;6.40;;
71204;SDS011;58935;54.498;18.544;2024-02-21T03:04:57;25.30;;;5.60;;
71204;SDS011;58935;54.498;18.544;2024-02-21T03:07:24;34.20;;;6.70;;
71204;SDS011;58935;54.498;18.544;2024-02-21T03:09:50;30.40;;;6.20;;
71204;SDS011;58935;54.498;18.544;2024-02-21T03:12:16;27.80;;;6.20;;
71204;SDS011;58935;54.498;18.544;2024-02-21T03:17:17;26.70;;;5.40;;
71204;SDS011;58935;54.498;18.544;2024-02-21T03:19:45;24.30;;;6.00;;
71204;SDS011;58935;54.498;18.544;2024-02-21T03:22:10;27.00;;;5.90;;
71204;SDS011;58935;54.498;18.544;2024-02-21T03:24:36;26.80;;;6.00;;
71204;SDS011;58935;54.498;18.544;2024-02-21T03:27:01;24.00;;;5.60;;
71204;SDS011;58935;54.498;18.544;2024-02-21T03:29:27;29.40;;;5.90;;
71204;SDS011;58935;54.498;18.544;2024-02-21T03:31:52;26.70;;;5.90;;
71204;SDS011;58935;54.498;18.544;2024-02-21T03:34:20;23.10;;;5.50;;
71204;SDS011;58935;54.498;18.544;2024-02-21T03:36:45;20.80;;;5.40;;
71204;SDS011;58935;54.498;18.544;2024-02-21T03:39:10;26.00;;;6.20;;
71204;SDS011;58935;54.498;18.544;2024-02-21T03:41:36;23.90;;;5.60;;
71204;SDS011;58935;54.498;18.544;2024-02-21T03:44:02;19.50;;;5.80;;
71204;SDS011;58935;54.498;18.544;2024-02-21T03:46:30;17.30;;;5.00;;
71204;SDS011;58935;54.498;18.544;2024-02-21T03:48:59;21.20;;;6.00;;
71204;SDS011;58935;54.498;18.544;2024-02-21T03:51:26;24.70;;;5.70;;
71204;SDS011;58935;54.498;18.544;2024-02-21T03:53:51;17.10;;;4.70;;
71204;SDS011;58935;54.498;18.544;2024-02-21T03:56:19;19.30;;;5.50;;
71204;SDS011;58935;54.498;18.544;2024-02-21T03:58:48;19.60;;;5.70;;
71204;SDS011;58935;54.498;18.544;2024-02-21T04:01:16;13.60;;;4.70;;
71204;SDS011;58935;54.498;18.544;2024-02-21T04:03:44;12.30;;;4.30;;
71204;SDS011;58935;54.498;18.544;2024-02-21T04:06:12;21.10;;;6.00;;
71204;SDS011;58935;54.498;18.544;2024-02-21T04:08:38;23.50;;;5.00;;
71204;SDS011;58935;54.498;18.544;2024-02-21T04:11:04;18.60;;;5.70;;
71204;SDS011;58935;54.498;18.544;2024-02-21T04:13:29;17.40;;;6.30;;
71204;SDS011;58935;54.498;18.544;2024-02-21T04:15:54;19.30;;;5.30;;
71204;SDS011;58935;54.498;18.544;2024-02-21T04:18:20;18.80;;;5.10;;
71204;SDS011;58935;54.498;18.544;2024-02-21T04:20:45;19.20;;;5.40;;
71204;SDS011;58935;54.498;18.544;2024-02-21T04:23:11;15.70;;;5.20;;
71204;SDS011;58935;54.498;18.544;2024-02-21T04:25:39;19.20;;;5.30;;
71204;SDS011;58935;54.498;18.544;2024-02-21T04:28:07;18.30;;;6.10;;
71204;SDS011;58935;54.498;18.544;2024-02-21T04:30:34;15.70;;;5.50;;
71204;SDS011;58935;54.498;18.544;2024-02-21T04:33:00;19.30;;;5.30;;
71204;SDS011;58935;54.498;18.544;2024-02-21T04:35:27;18.80;;;5.30;;
71204;SDS011;58935;54.498;18.544;2024-02-21T04:37:53;18.60;;;5.50;;
71204;SDS011;58935;54.498;18.544;2024-02-21T04:40:18;18.30;;;5.50;;
71204;SDS011;58935;54.498;18.544;2024-02-21T04:42:44;22.50;;;5.80;;
71204;SDS011;58935;54.498;18.544;2024-02-21T04:45:10;19.80;;;5.40;;
71204;SDS011;58935;54.498;18.544;2024-02-21T04:47:35;22.40;;;5.60;;
71204;SDS011;58935;54.498;18.544;2024-02-21T04:50:00;17.50;;;5.30;;
71204;SDS011;58935;54.498;18.544;2024-02-21T04:52:26;18.50;;;5.70;;
71204;SDS011;58935;54.498;18.544;2024-02-21T04:54:51;18.80;;;6.10;;
71204;SDS011;58935;54.498;18.544;2024-02-21T04:57:17;24.60;;;5.80;;
71204;SDS011;58935;54.498;18.544;2024-02-21T04:59:44;17.00;;;5.30;;
71204;SDS011;58935;54.498;18.544;2024-02-21T05:02:11;17.60;;;5.50;;
71204;SDS011;58935;54.498;18.544;2024-02-21T05:04:36;20.40;;;5.90;;
71204;SDS011;58935;54.498;18.544;2024-02-21T05:07:04;23.50;;;6.60;;
71204;SDS011;58935;54.498;18.544;2024-02-21T05:09:30;20.50;;;5.30;;
71204;SDS011;58935;54.498;18.544;2024-02-21T05:11:55;18.00;;;5.90;;
71204;SDS011;58935;54.498;18.544;2024-02-21T05:14:21;13.70;;;5.30;;
71204;SDS011;58935;54.498;18.544;2024-02-21T05:16:48;20.10;;;5.50;;
71204;SDS011;58935;54.498;18.544;2024-02-21T05:19:16;22.50;;;5.50;;
71204;SDS011;58935;54.498;18.544;2024-02-21T05:21:41;17.00;;;5.10;;
71204;SDS011;58935;54.498;18.544;2024-02-21T05:24:07;19.90;;;5.50;;
71204;SDS011;58935;54.498;18.544;2024-02-21T05:26:32;23.00;;;4.90;;
71204;SDS011;58935;54.498;18.544;2024-02-21T05:28:57;19.80;;;6.00;;
71204;SDS011;58935;54.498;18.544;2024-02-21T05:31:24;19.60;;;6.40;;
71204;SDS011;58935;54.498;18.544;2024-02-21T05:33:50;19.70;;;5.60;;
71204;SDS011;58935;54.498;18.544;2024-02-21T05:36:15;20.40;;;6.30;;
71204;SDS011;58935;54.498;18.544;2024-02-21T05:38:43;21.70;;;6.80;;
71204;SDS011;58935;54.498;18.544;2024-02-21T05:41:08;19.80;;;7.60;;
71204;SDS011;58935;54.498;18.544;2024-02-21T05:43:34;25.60;;;7.90;;
71204;SDS011;58935;54.498;18.544;2024-02-21T05:45:59;13.70;;;6.20;;
71204;SDS011;58935;54.498;18.544;2024-02-21T05:48:25;18.60;;;6.70;;
71204;SDS011;58935;54.498;18.544;2024-02-21T05:50:50;20.20;;;6.80;;
71204;SDS011;58935;54.498;18.544;2024-02-21T05:53:15;16.30;;;6.80;;
71204;SDS011;58935;54.498;18.544;2024-02-21T05:55:41;15.50;;;6.20;;
71204;SDS011;58935;54.498;18.544;2024-02-21T05:58:09;20.10;;;6.50;;
71204;SDS011;58935;54.498;18.544;2024-02-21T06:00:39;14.50;;;5.90;;
71204;SDS011;58935;54.498;18.544;2024-02-21T06:03:04;17.00;;;6.60;;
71204;SDS011;58935;54.498;18.544;2024-02-21T06:05:30;13.30;;;5.90;;
71204;SDS011;58935;54.498;18.544;2024-02-21T06:07:57;19.40;;;6.80;;
71204;SDS011;58935;54.498;18.544;2024-02-21T06:10:22;22.10;;;7.70;;
71204;SDS011;58935;54.498;18.544;2024-02-21T06:12:50;17.70;;;7.60;;
71204;SDS011;58935;54.498;18.544;2024-02-21T06:15:17;15.50;;;7.60;;
71204;SDS011;58935;54.498;18.544;2024-02-21T06:17:42;19.80;;;8.30;;
71204;SDS011;58935;54.498;18.544;2024-02-21T06:20:08;17.10;;;8.20;;
71204;SDS011;58935;54.498;18.544;2024-02-21T06:22:34;20.10;;;8.20;;
71204;SDS011;58935;54.498;18.544;2024-02-21T06:24:59;19.90;;;8.30;;
71204;SDS011;58935;54.498;18.544;2024-02-21T06:27:24;18.40;;;7.90;;
71204;SDS011;58935;54.498;18.544;2024-02-21T06:29:50;16.30;;;7.40;;
71204;SDS011;58935;54.498;18.544;2024-02-21T06:32:16;18.20;;;7.90;;
71204;SDS011;58935;54.498;18.544;2024-02-21T06:34:41;24.40;;;8.90;;
71204;SDS011;58935;54.498;18.544;2024-02-21T06:37:06;24.80;;;10.40;;
71204;SDS011;58935;54.498;18.544;2024-02-21T06:39:32;20.00;;;8.80;;
71204;SDS011;58935;54.498;18.544;2024-02-21T06:41:57;21.10;;;9.40;;
71204;SDS011;58935;54.498;18.544;2024-02-21T06:44:22;19.70;;;8.40;;
71204;SDS011;58935;54.498;18.544;2024-02-21T06:46:48;23.30;;;9.70;;
71204;SDS011;58935;54.498;18.544;2024-02-21T06:49:13;25.20;;;10.60;;
71204;SDS011;58935;54.498;18.544;2024-02-21T06:51:42;26.20;;;10.70;;
71204;SDS011;58935;54.498;18.544;2024-02-21T06:54:08;29.40;;;9.70;;
71204;SDS011;58935;54.498;18.544;2024-02-21T06:56:36;31.50;;;10.40;;
71204;SDS011;58935;54.498;18.544;2024-02-21T06:59:03;26.80;;;10.30;;
71204;SDS011;58935;54.498;18.544;2024-02-21T07:01:29;25.40;;;9.40;;
71204;SDS011;58935;54.498;18.544;2024-02-21T07:03:55;24.60;;;10.00;;
71204;SDS011;58935;54.498;18.544;2024-02-21T07:06:21;29.00;;;10.30;;
71204;SDS011;58935;54.498;18.544;2024-02-21T07:08:47;27.50;;;9.80;;
71204;SDS011;58935;54.498;18.544;2024-02-21T07:11:14;28.10;;;9.60;;
71204;SDS011;58935;54.498;18.544;2024-02-21T07:13:40;27.80;;;9.20;;
71204;SDS011;58935;54.498;18.544;2024-02-21T07:16:08;26.00;;;8.80;;
71204;SDS011;58935;54.498;18.544;2024-02-21T07:18:34;26.00;;;8.90;;
71204;SDS011;58935;54.498;18.544;2024-02-21T07:20:59;26.80;;;8.80;;
71204;SDS011;58935;54.498;18.544;2024-02-21T07:23:25;22.00;;;9.40;;
71204;SDS011;58935;54.498;18.544;2024-02-21T07:25:50;23.00;;;9.20;;
71204;SDS011;58935;54.498;18.544;2024-02-21T07:28:18;24.80;;;9.60;;
71204;SDS011;58935;54.498;18.544;2024-02-21T07:30:44;28.80;;;9.70;;
71204;SDS011;58935;54.498;18.544;2024-02-21T07:33:11;23.60;;;9.30;;
71204;SDS011;58935;54.498;18.544;2024-02-21T07:35:37;26.30;;;9.00;;
71204;SDS011;58935;54.498;18.544;2024-02-21T07:38:06;27.20;;;9.50;;
71204;SDS011;58935;54.498;18.544;2024-02-21T07:40:32;32.10;;;11.10;;
71204;SDS011;58935;54.498;18.544;2024-02-21T07:43:00;26.30;;;9.80;;
71204;SDS011;58935;54.498;18.544;2024-02-21T07:45:25;28.10;;;10.10;;
71204;SDS011;58935;54.498;18.544;2024-02-21T07:47:51;38.70;;;10.70;;
71204;SDS011;58935;54.498;18.544;2024-02-21T07:50:17;25.40;;;11.20;;
71204;SDS011;58935;54.498;18.544;2024-02-21T07:52:42;29.50;;;10.80;;
71204;SDS011;58935;54.498;18.544;2024-02-21T07:55:11;34.50;;;11.20;;
71204;SDS011;58935;54.498;18.544;2024-02-21T07:57:36;32.50;;;10.60;;
71204;SDS011;58935;54.498;18.544;2024-02-21T08:00:02;27.90;;;11.20;;
71204;SDS011;58935;54.498;18.544;2024-02-21T08:02:30;30.30;;;10.90;;
71204;SDS011;58935;54.498;18.544;2024-02-21T08:05:00;33.00;;;11.30;;
71204;SDS011;58935;54.498;18.544;2024-02-21T08:07:25;26.50;;;10.10;;
71204;SDS011;58935;54.498;18.544;2024-02-21T08:09:54;27.50;;;10.20;;
71204;SDS011;58935;54.498;18.544;2024-02-21T08:12:19;29.40;;;10.60;;
71204;SDS011;58935;54.498;18.544;2024-02-21T08:14:45;28.90;;;10.70;;
71204;SDS011;58935;54.498;18.544;2024-02-21T08:17:10;23.70;;;10.20;;
71204;SDS011;58935;54.498;18.544;2024-02-21T08:19:36;28.60;;;10.50;;
71204;SDS011;58935;54.498;18.544;2024-02-21T08:22:03;22.70;;;10.90;;
71204;SDS011;58935;54.498;18.544;2024-02-21T08:24:29;24.20;;;10.80;;
71204;SDS011;58935;54.498;18.544;2024-02-21T08:26:54;26.50;;;11.70;;
71204;SDS011;58935;54.498;18.544;2024-02-21T08:29:23;19.50;;;10.30;;
71204;SDS011;58935;54.498;18.544;2024-02-21T08:31:53;26.80;;;9.80;;
71204;SDS011;58935;54.498;18.544;2024-02-21T08:34:21;20.20;;;9.20;;
71204;SDS011;58935;54.498;18.544;2024-02-21T08:36:49;23.20;;;9.90;;
71204;SDS011;58935;54.498;18.544;2024-02-21T08:39:17;21.10;;;10.20;;
71204;SDS011;58935;54.498;18.544;2024-02-21T08:41:44;25.40;;;10.10;;
71204;SDS011;58935;54.498;18.544;2024-02-21T08:44:10;29.50;;;10.20;;
71204;SDS011;58935;54.498;18.544;2024-02-21T08:46:35;22.30;;;10.10;;
71204;SDS011;58935;54.498;18.544;2024-02-21T08:49:03;22.70;;;9.40;;
71204;SDS011;58935;54.498;18.544;2024-02-21T08:51:28;24.20;;;9.60;;
71204;SDS011;58935;54.498;18.544;2024-02-21T08:53:54;18.20;;;9.30;;
71204;SDS011;58935;54.498;18.544;2024-02-21T08:56:20;22.30;;;9.50;;
71204;SDS011;58935;54.498;18.544;2024-02-21T08:58:47;22.40;;;9.60;;
71204;SDS011;58935;54.498;18.544;2024-02-21T09:01:13;17.50;;;8.70;;
71204;SDS011;58935;54.498;18.544;2024-02-21T09:03:39;21.00;;;9.10;;
71204;SDS011;58935;54.498;18.544;2024-02-21T09:06:09;21.20;;;9.50;;
71204;SDS011;58935;54.498;18.544;2024-02-21T09:08:35;24.40;;;10.70;;
71204;SDS011;58935;54.498;18.544;2024-02-21T09:14:44;19.30;;;9.60;;
71204;SDS011;58935;54.498;18.544;2024-02-21T09:17:10;22.10;;;10.80;;
71204;SDS011;58935;54.498;18.544;2024-02-21T09:19:35;21.40;;;10.00;;
71204;SDS011;58935;54.498;18.544;2024-02-21T09:27:15;26.60;;;11.40;;
71204;SDS011;58935;54.498;18.544;2024-02-21T09:29:40;20.50;;;10.40;;
71204;SDS011;58935;54.498;18.544;2024-02-21T09:35:28;17.20;;;9.70;;
71204;SDS011;58935;54.498;18.544;2024-02-21T09:37:59;23.40;;;10.60;;
71204;SDS011;58935;54.498;18.544;2024-02-21T09:40:24;21.40;;;10.30;;
71204;SDS011;58935;54.498;18.544;2024-02-21T09:43:02;21.80;;;10.90;;
71204;SDS011;58935;54.498;18.544;2024-02-21T09:45:29;19.00;;;11.50;;
71204;SDS011;58935;54.498;18.544;2024-02-21T09:48:02;18.70;;;10.90;;
71204;SDS011;58935;54.498;18.544;2024-02-21T09:50:43;22.50;;;11.30;;
71204;SDS011;58935;54.498;18.544;2024-02-21T09:55:49;20.00;;;11.20;;
71204;SDS011;58935;54.498;18.544;2024-02-21T10:00:55;19.40;;;9.70;;
71204;SDS011;58935;54.498;18.544;2024-02-21T10:03:22;19.90;;;9.50;;
71204;SDS011;58935;54.498;18.544;2024-02-21T10:05:48;19.60;;;9.90;;
71204;SDS011;58935;54.498;18.544;2024-02-21T10:08:15;17.80;;;9.70;;
71204;SDS011;58935;54.498;18.544;2024-02-21T10:10:45;16.10;;;9.70;;
71204;SDS011;58935;54.498;18.544;2024-02-21T10:13:24;15.30;;;8.30;;
71204;SDS011;58935;54.498;18.544;2024-02-21T10:18:28;12.00;;;8.10;;
71204;SDS011;58935;54.498;18.544;2024-02-21T10:23:26;11.30;;;8.00;;
71204;SDS011;58935;54.498;18.544;2024-02-21T10:25:51;8.60;;;6.90;;
71204;SDS011;58935;54.498;18.544;2024-02-21T10:28:18;12.70;;;7.10;;
71204;SDS011;58935;54.498;18.544;2024-02-21T10:30:50;13.60;;;6.80;;
71204;SDS011;58935;54.498;18.544;2024-02-21T10:33:19;11.90;;;6.10;;
71204;SDS011;58935;54.498;18.544;2024-02-21T10:35:46;9.60;;;6.60;;
71204;SDS011;58935;54.498;18.544;2024-02-21T10:38:12;8.10;;;5.80;;
71204;SDS011;58935;54.498;18.544;2024-02-21T10:40:38;19.20;;;6.40;;
71204;SDS011;58935;54.498;18.544;2024-02-21T10:43:05;14.50;;;7.00;;
71204;SDS011;58935;54.498;18.544;2024-02-21T10:45:41;8.20;;;5.40;;
71204;SDS011;58935;54.498;18.544;2024-02-21T10:48:11;11.60;;;5.10;;
71204;SDS011;58935;54.498;18.544;2024-02-21T10:53:29;5.50;;;4.70;;
71204;SDS011;58935;54.498;18.544;2024-02-21T10:58:38;8.20;;;5.80;;
71204;SDS011;58935;54.498;18.544;2024-02-21T11:01:05;7.20;;;5.30;;
71204;SDS011;58935;54.498;18.544;2024-02-21T11:03:31;7.10;;;5.00;;
71204;SDS011;58935;54.498;18.544;2024-02-21T11:05:57;9.80;;;4.90;;
71204;SDS011;58935;54.498;18.544;2024-02-21T11:08:24;8.10;;;4.60;;
71204;SDS011;58935;54.498;18.544;2024-02-21T11:26:20;4.70;;;4.30;;
71204;SDS011;58935;54.498;18.544;2024-02-21T11:28:57;4.30;;;3.90;;
71204;SDS011;58935;54.498;18.544;2024-02-21T11:31:25;7.90;;;4.40;;
71204;SDS011;58935;54.498;18.544;2024-02-21T11:33:52;7.50;;;4.90;;
71204;SDS011;58935;54.498;18.544;2024-02-21T11:36:23;4.10;;;3.60;;
71204;SDS011;58935;54.498;18.544;2024-02-21T11:38:51;6.50;;;4.10;;
71204;SDS011;58935;54.498;18.544;2024-02-21T11:41:20;7.80;;;4.90;;
71204;SDS011;58935;54.498;18.544;2024-02-21T11:43:48;5.10;;;3.90;;
71204;SDS011;58935;54.498;18.544;2024-02-21T11:46:15;7.40;;;4.60;;
71204;SDS011;58935;54.498;18.544;2024-02-21T11:48:44;6.90;;;4.70;;
71204;SDS011;58935;54.498;18.544;2024-02-21T11:51:21;5.70;;;4.00;;
71204;SDS011;58935;54.498;18.544;2024-02-21T11:53:53;5.10;;;3.90;;
71204;SDS011;58935;54.498;18.544;2024-02-21T11:56:19;6.40;;;3.70;;
71204;SDS011;58935;54.498;18.544;2024-02-21T11:58:48;6.40;;;3.90;;
71204;SDS011;58935;54.498;18.544;2024-02-21T12:01:14;5.00;;;4.50;;
71204;SDS011;58935;54.498;18.544;2024-02-21T12:03:43;5.30;;;4.20;;
71204;SDS011;58935;54.498;18.544;2024-02-21T12:06:15;5.50;;;4.30;;
71204;SDS011;58935;54.498;18.544;2024-02-21T12:08:45;6.80;;;4.00;;
71204;SDS011;58935;54.498;18.544;2024-02-21T12:11:21;3.40;;;3.20;;
71204;SDS011;58935;54.498;18.544;2024-02-21T12:16:24;5.60;;;3.40;;
71204;SDS011;58935;54.498;18.544;2024-02-21T12:18:53;4.20;;;3.80;;
71204;SDS011;58935;54.498;18.544;2024-02-21T12:21:24;4.30;;;3.50;;
71204;SDS011;58935;54.498;18.544;2024-02-21T12:26:30;3.70;;;3.30;;
71204;SDS011;58935;54.498;18.544;2024-02-21T12:28:55;5.20;;;3.30;;
71204;SDS011;58935;54.498;18.544;2024-02-21T12:31:22;6.10;;;3.40;;
71204;SDS011;58935;54.498;18.544;2024-02-21T12:33:48;7.30;;;3.00;;
71204;SDS011;58935;54.498;18.544;2024-02-21T12:36:13;4.80;;;2.90;;
71204;SDS011;58935;54.498;18.544;2024-02-21T12:38:39;4.70;;;3.40;;
71204;SDS011;58935;54.498;18.544;2024-02-21T12:41:06;3.70;;;2.70;;
71204;SDS011;58935;54.498;18.544;2024-02-21T12:43:32;4.60;;;3.00;;
71204;SDS011;58935;54.498;18.544;2024-02-21T12:46:02;5.00;;;3.00;;
71204;SDS011;58935;54.498;18.544;2024-02-21T12:48:27;4.40;;;3.20;;
71204;SDS011;58935;54.498;18.544;2024-02-21T12:50:53;4.30;;;3.10;;
71204;SDS011;58935;54.498;18.544;2024-02-21T12:53:21;4.60;;;2.40;;
71204;SDS011;58935;54.498;18.544;2024-02-21T12:55:48;5.10;;;2.60;;
71204;SDS011;58935;54.498;18.544;2024-02-21T12:58:14;4.40;;;2.50;;
71204;SDS011;58935;54.498;18.544;2024-02-21T13:00:40;3.00;;;2.70;;
71204;SDS011;58935;54.498;18.544;2024-02-21T13:03:06;4.30;;;2.70;;
71204;SDS011;58935;54.498;18.544;2024-02-21T13:05:32;2.70;;;2.20;;
71204;SDS011;58935;54.498;18.544;2024-02-21T13:08:00;4.50;;;2.60;;
71204;SDS011;58935;54.498;18.544;2024-02-21T13:10:26;5.40;;;2.50;;
71204;SDS011;58935;54.498;18.544;2024-02-21T13:12:51;5.60;;;2.70;;
71204;SDS011;58935;54.498;18.544;2024-02-21T13:15:19;4.00;;;2.60;;
71204;SDS011;58935;54.498;18.544;2024-02-21T13:17:45;6.10;;;2.70;;
71204;SDS011;58935;54.498;18.544;2024-02-21T13:22:51;4.70;;;2.50;;
71204;SDS011;58935;54.498;18.544;2024-02-21T13:25:16;4.60;;;2.50;;
71204;SDS011;58935;54.498;18.544;2024-02-21T13:27:45;4.30;;;2.60;;
71204;SDS011;58935;54.498;18.544;2024-02-21T13:30:11;4.40;;;2.50;;
71204;SDS011;58935;54.498;18.544;2024-02-21T13:32:38;6.10;;;3.00;;
71204;SDS011;58935;54.498;18.544;2024-02-21T13:35:03;7.10;;;2.80;;
71204;SDS011;58935;54.498;18.544;2024-02-21T13:37:29;3.10;;;2.20;;
71204;SDS011;58935;54.498;18.544;2024-02-21T13:39:55;3.20;;;2.40;;
71204;SDS011;58935;54.498;18.544;2024-02-21T13:42:21;4.00;;;2.90;;
71204;SDS011;58935;54.498;18.544;2024-02-21T13:44:46;5.10;;;2.30;;
71204;SDS011;58935;54.498;18.544;2024-02-21T13:47:14;3.70;;;2.10;;
71204;SDS011;58935;54.498;18.544;2024-02-21T13:49:40;6.90;;;2.70;;
71204;SDS011;58935;54.498;18.544;2024-02-21T13:52:07;2.50;;;2.30;;
71204;SDS011;58935;54.498;18.544;2024-02-21T13:54:34;4.50;;;2.40;;
71204;SDS011;58935;54.498;18.544;2024-02-21T13:57:00;4.50;;;1.90;;
71204;SDS011;58935;54.498;18.544;2024-02-21T13:59:27;3.40;;;2.40;;
71204;SDS011;58935;54.498;18.544;2024-02-21T14:01:53;8.70;;;2.80;;
71204;SDS011;58935;54.498;18.544;2024-02-21T14:04:21;4.00;;;2.50;;
71204;SDS011;58935;54.498;18.544;2024-02-21T14:06:47;6.20;;;2.90;;
71204;SDS011;58935;54.498;18.544;2024-02-21T14:09:12;4.10;;;2.50;;
71204;SDS011;58935;54.498;18.544;2024-02-21T14:11:39;5.80;;;2.50;;
71204;SDS011;58935;54.498;18.544;2024-02-21T14:14:10;5.00;;;2.40;;
71204;SDS011;58935;54.498;18.544;2024-02-21T14:16:36;4.80;;;2.60;;
71204;SDS011;58935;54.498;18.544;2024-02-21T14:19:02;6.70;;;2.90;;
71204;SDS011;58935;54.498;18.544;2024-02-21T14:21:27;2.60;;;2.20;;
71204;SDS011;58935;54.498;18.544;2024-02-21T14:23:56;6.10;;;2.60;;
71204;SDS011;58935;54.498;18.544;2024-02-21T14:26:22;4.90;;;2.70;;
71204;SDS011;58935;54.498;18.544;2024-02-21T14:28:49;6.40;;;2.80;;
71204;SDS011;58935;54.498;18.544;2024-02-21T14:31:15;6.10;;;2.80;;
71204;SDS011;58935;54.498;18.544;2024-02-21T14:33:40;7.70;;;2.90;;
71204;SDS011;58935;54.498;18.544;2024-02-21T14:36:06;3.30;;;2.90;;
71204;SDS011;58935;54.498;18.544;2024-02-21T14:38:32;8.30;;;3.30;;
71204;SDS011;58935;54.498;18.544;2024-02-21T14:40:58;5.60;;;3.50;;
71204;SDS011;58935;54.498;18.544;2024-02-21T14:43:23;4.50;;;2.70;;
71204;SDS011;58935;54.498;18.544;2024-02-21T14:45:51;9.00;;;3.30;;
71204;SDS011;58935;54.498;18.544;2024-02-21T14:48:17;6.30;;;3.30;;
71204;SDS011;58935;54.498;18.544;2024-02-21T14:50:42;7.40;;;3.60;;
71204;SDS011;58935;54.498;18.544;2024-02-21T14:53:08;6.50;;;3.40;;
71204;SDS011;58935;54.498;18.544;2024-02-21T14:55:34;6.30;;;3.70;;
71204;SDS011;58935;54.498;18.544;2024-02-21T14:58:00;11.40;;;3.70;;
71204;SDS011;58935;54.498;18.544;2024-02-21T15:00:26;8.10;;;3.40;;
71204;SDS011;58935;54.498;18.544;2024-02-21T15:02:57;7.30;;;3.30;;
71204;SDS011;58935;54.498;18.544;2024-02-21T15:05:23;4.50;;;2.80;;
71204;SDS011;58935;54.498;18.544;2024-02-21T15:07:49;13.20;;;3.10;;
71204;SDS011;58935;54.498;18.544;2024-02-21T15:10:15;7.60;;;3.20;;
71204;SDS011;58935;54.498;18.544;2024-02-21T15:12:43;5.40;;;2.60;;
71204;SDS011;58935;54.498;18.544;2024-02-21T15:15:10;5.80;;;2.10;;
71204;SDS011;58935;54.498;18.544;2024-02-21T15:17:38;5.20;;;2.30;;